createdAt,value
2018-06-05T00:00:46.077Z,28.50
2018-06-05T00:03:15.037Z,29.50
2018-06-05T00:05:44.002Z,29.40
2018-06-05T00:08:12.949Z,30.40
2018-06-05T00:10:42.060Z,31.60
2018-06-05T00:13:11.000Z,29.00
2018-06-05T00:15:39.958Z,29.70
2018-06-05T00:18:08.917Z,29.93
2018-06-05T00:20:37.645Z,30.17
2018-06-05T00:23:06.458Z,29.30
2018-06-05T00:25:35.460Z,31.80
2018-06-05T00:28:04.589Z,30.00
2018-06-05T00:30:33.560Z,30.37
2018-06-05T00:33:02.530Z,31.37
2018-06-05T00:35:31.536Z,30.30
2018-06-05T00:38:00.490Z,29.90
2018-06-05T00:40:29.466Z,30.40
2018-06-05T00:42:58.426Z,27.40
2018-06-05T00:45:27.429Z,29.90
2018-06-05T00:47:56.393Z,29.47
2018-06-05T00:50:25.369Z,29.70
2018-06-05T00:52:54.397Z,27.30
2018-06-05T00:55:25.349Z,28.63
2018-06-05T00:57:54.291Z,27.27
2018-06-05T01:00:23.306Z,27.93
2018-06-05T01:02:52.315Z,26.73
2018-06-05T01:05:21.252Z,27.20
2018-06-05T01:07:50.521Z,28.37
2018-06-05T01:10:19.457Z,27.50
2018-06-05T01:12:48.435Z,27.30
2018-06-05T01:15:17.354Z,27.40
2018-06-05T01:17:46.283Z,27.43
2018-06-05T01:20:15.219Z,26.83
2018-06-05T01:22:44.156Z,27.83
2018-06-05T01:25:13.140Z,26.83
2018-06-05T01:27:42.091Z,26.53
2018-06-05T01:30:11.061Z,28.83
2018-06-05T01:32:39.992Z,28.97
2018-06-05T01:35:08.760Z,29.07
2018-06-05T01:37:37.569Z,27.23
2018-06-05T01:40:06.489Z,28.43
2018-06-05T01:42:35.717Z,27.40
2018-06-05T01:45:04.702Z,28.77
2018-06-05T01:47:33.649Z,29.40
2018-06-05T01:50:02.577Z,30.90
2018-06-05T01:52:31.516Z,30.50
2018-06-05T01:55:00.441Z,28.77
2018-06-05T01:57:29.422Z,28.60
2018-06-05T01:59:58.344Z,29.50
2018-06-05T02:02:27.444Z,29.10
2018-06-05T02:04:56.382Z,29.70
2018-06-05T02:07:25.345Z,30.50
2018-06-05T02:09:54.360Z,30.57
2018-06-05T02:12:23.277Z,30.40
2018-06-05T02:14:52.270Z,30.10
2018-06-05T02:17:21.249Z,31.00
2018-06-05T02:19:50.186Z,31.07
2018-06-05T02:22:19.130Z,30.57
2018-06-05T02:24:48.118Z,30.27
2018-06-05T02:27:17.072Z,28.70
2018-06-05T02:29:46.029Z,29.30
2018-06-05T02:32:14.972Z,29.87
2018-06-05T02:34:43.689Z,29.70
2018-06-05T02:37:12.599Z,31.50
2018-06-05T02:39:41.552Z,27.87
2018-06-05T02:42:10.276Z,29.47
2018-06-05T02:44:39.067Z,27.60
2018-06-05T02:47:08.072Z,29.13
2018-06-05T02:49:37.000Z,29.30
2018-06-05T02:52:05.921Z,28.40
2018-06-05T02:54:34.963Z,29.30
2018-06-05T02:57:03.914Z,28.23
2018-06-05T02:59:32.894Z,29.17
2018-06-05T03:02:01.803Z,32.60
2018-06-05T03:04:30.755Z,31.77
2018-06-05T03:06:59.513Z,32.20
2018-06-05T03:09:28.340Z,32.30
2018-06-05T03:11:57.338Z,32.17
2018-06-05T03:14:26.282Z,34.60
2018-06-05T03:16:55.275Z,32.07
2018-06-05T03:19:24.205Z,34.13
2018-06-05T03:21:53.164Z,32.80
2018-06-05T03:24:22.077Z,36.13
2018-06-05T03:26:51.021Z,34.40
2018-06-05T03:29:19.961Z,35.67
2018-06-05T03:31:48.931Z,35.20
2018-06-05T03:34:17.882Z,35.87
2018-06-05T03:36:46.825Z,36.83
2018-06-05T03:39:17.820Z,37.90
2018-06-05T03:41:46.741Z,35.27
2018-06-05T03:44:15.686Z,35.83
2018-06-05T03:46:44.652Z,35.07
2018-06-05T03:49:13.578Z,37.60
2018-06-05T03:51:42.537Z,38.90
2018-06-05T03:54:12.108Z,38.90
2018-06-05T03:56:41.038Z,37.60
2018-06-05T03:59:09.966Z,39.20
2018-06-05T04:01:39.371Z,40.33
2018-06-05T04:04:08.342Z,39.87
2018-06-05T04:06:37.286Z,39.00
2018-06-05T04:09:06.590Z,41.47
2018-06-05T04:11:35.593Z,41.10
2018-06-05T04:14:04.509Z,41.70
2018-06-05T04:16:33.440Z,41.77
2018-06-05T04:19:02.685Z,41.17
2018-06-05T04:21:31.621Z,39.90
2018-06-05T04:24:00.569Z,40.00
2018-06-05T04:26:29.531Z,42.40
2018-06-05T04:28:58.451Z,41.77
2018-06-05T04:31:27.434Z,38.10
2018-06-05T04:33:56.378Z,40.13
2018-06-05T04:36:25.348Z,41.67
2018-06-05T04:38:54.297Z,40.50
2018-06-05T04:41:23.279Z,40.47
2018-06-05T04:43:52.244Z,41.17
2018-06-05T04:46:21.173Z,41.10
2018-06-05T04:48:50.724Z,39.90
2018-06-05T04:51:19.677Z,42.33
2018-06-05T04:53:48.640Z,39.67
2018-06-05T04:56:17.581Z,40.63
2018-06-05T04:58:46.645Z,39.40
2018-06-05T05:01:15.604Z,36.97
2018-06-05T05:03:44.569Z,39.50
2018-06-05T05:06:13.540Z,39.10
2018-06-05T05:08:42.993Z,37.97
2018-06-05T05:11:11.921Z,38.13
2018-06-05T05:13:40.865Z,38.03
2018-06-05T05:16:09.833Z,36.80
2018-06-05T05:18:38.773Z,35.60
2018-06-05T05:21:07.766Z,35.47
2018-06-05T05:23:36.728Z,33.80
2018-06-05T05:26:05.745Z,33.83
2018-06-05T05:28:34.742Z,34.60
2018-06-05T05:31:03.909Z,34.30
2018-06-05T05:33:32.863Z,34.30
2018-06-05T05:36:01.782Z,34.03
2018-06-05T05:38:30.781Z,33.10
2018-06-05T05:40:59.710Z,32.97
2018-06-05T05:43:28.660Z,31.30
2018-06-05T05:45:57.601Z,30.30
2018-06-05T05:48:26.537Z,32.10
2018-06-05T05:50:55.533Z,31.33
2018-06-05T05:53:24.484Z,29.47
2018-06-05T05:55:53.465Z,29.30
2018-06-05T05:58:22.400Z,29.30
2018-06-05T06:00:51.468Z,29.57
2018-06-05T06:03:20.413Z,29.03
2018-06-05T06:05:49.430Z,28.40
2018-06-05T06:08:18.408Z,27.70
2018-06-05T06:10:47.356Z,26.93
2018-06-05T06:13:16.341Z,28.07
2018-06-05T06:15:45.352Z,27.17
2018-06-05T06:18:14.098Z,28.53
2018-06-05T06:20:42.909Z,27.33
2018-06-05T06:23:11.817Z,27.67
2018-06-05T06:25:40.926Z,29.17
2018-06-05T06:28:09.828Z,26.87
2018-06-05T06:30:38.754Z,24.50
2018-06-05T06:33:07.693Z,25.43
2018-06-05T06:35:36.640Z,25.77
2018-06-05T06:38:05.569Z,24.03
2018-06-05T06:40:34.512Z,24.90
2018-06-05T06:43:03.428Z,23.33
2018-06-05T06:45:32.369Z,24.60
2018-06-05T06:48:01.342Z,24.80
2018-06-05T06:50:30.266Z,26.07
2018-06-05T06:52:59.185Z,26.70
2018-06-05T06:55:27.935Z,25.93
2018-06-05T06:57:56.717Z,25.57
2018-06-05T07:00:25.633Z,25.50
2018-06-05T07:02:54.565Z,24.20
2018-06-05T07:05:23.493Z,25.10
2018-06-05T07:07:53.513Z,24.77
2018-06-05T07:10:22.940Z,24.07
2018-06-05T07:12:52.052Z,25.87
2018-06-05T07:15:20.975Z,24.63
2018-06-05T07:17:49.887Z,25.70
2018-06-05T07:20:19.843Z,25.93
2018-06-05T07:22:48.770Z,25.43
2018-06-05T07:25:17.720Z,26.43
2018-06-05T07:27:46.670Z,24.60
2018-06-05T07:30:15.626Z,25.40
2018-06-05T07:32:44.557Z,24.60
2018-06-05T07:35:13.489Z,23.33
2018-06-05T07:37:42.418Z,23.80
2018-06-05T07:40:11.344Z,23.33
2018-06-05T07:42:40.260Z,25.13
2018-06-05T07:45:09.209Z,25.67
2018-06-05T07:47:38.157Z,24.73
2018-06-05T07:50:07.201Z,25.40
2018-06-05T07:52:36.134Z,24.50
2018-06-05T07:55:05.058Z,24.70
2018-06-05T07:57:34.033Z,24.73
2018-06-05T08:00:03.393Z,23.53
2018-06-05T08:02:32.336Z,24.77
2018-06-05T08:05:01.267Z,24.77
2018-06-05T08:07:30.221Z,25.87
2018-06-05T08:09:59.195Z,25.63
2018-06-05T08:12:28.301Z,26.60
2018-06-05T08:14:57.258Z,26.60
2018-06-05T08:17:26.178Z,25.23
2018-06-05T08:19:55.108Z,27.80
2018-06-05T08:22:24.737Z,28.20
2018-06-05T08:24:53.522Z,26.80
2018-06-05T08:27:23.450Z,26.90
2018-06-05T08:29:52.377Z,25.20
2018-06-05T08:32:21.374Z,26.60
2018-06-05T08:34:50.758Z,26.87
2018-06-05T08:37:19.772Z,26.70
2018-06-05T08:39:48.707Z,26.47
2018-06-05T08:42:17.685Z,26.07
2018-06-05T08:44:47.086Z,25.90
2018-06-05T08:47:16.686Z,26.80
2018-06-05T08:49:46.341Z,27.37
2018-06-05T08:52:16.225Z,27.70
2018-06-05T08:54:45.439Z,27.43
2018-06-05T08:57:15.068Z,28.20
2018-06-05T08:59:44.001Z,27.47
2018-06-05T09:02:12.760Z,26.33
2018-06-05T09:04:41.579Z,26.80
2018-06-05T09:07:10.518Z,25.77
2018-06-05T09:09:40.501Z,26.93
2018-06-05T09:12:09.445Z,28.77
2018-06-05T09:14:38.391Z,28.00
2018-06-05T09:17:07.331Z,27.17
2018-06-05T09:19:37.309Z,28.57
2018-06-05T09:22:06.334Z,27.03
2018-06-05T09:24:35.377Z,27.30
2018-06-05T09:27:04.854Z,26.27
2018-06-05T09:29:33.825Z,26.80
2018-06-05T09:32:02.764Z,25.83
2018-06-05T09:34:31.747Z,27.47
2018-06-05T09:37:00.636Z,27.07
2018-06-05T09:39:29.607Z,28.23
2018-06-05T09:41:58.509Z,26.97
2018-06-05T09:44:27.798Z,28.00
2018-06-05T09:46:56.795Z,27.03
2018-06-05T09:49:25.677Z,25.80
2018-06-05T09:51:54.815Z,26.47
2018-06-05T09:54:23.738Z,26.83
2018-06-05T09:56:52.689Z,26.77
2018-06-05T09:59:21.638Z,26.50
2018-06-05T10:01:50.709Z,25.77
2018-06-05T10:04:19.615Z,25.30
2018-06-05T10:06:48.607Z,26.70
2018-06-05T10:09:17.550Z,26.73
2018-06-05T10:11:46.466Z,24.80
2018-06-05T10:14:15.495Z,24.50
2018-06-05T10:16:44.407Z,25.40
2018-06-05T10:19:13.334Z,23.53
2018-06-05T10:21:42.268Z,23.63
2018-06-05T10:24:11.208Z,24.63
2018-06-05T10:26:40.175Z,22.60
2018-06-05T10:29:09.211Z,23.20
2018-06-05T10:31:38.131Z,23.67
2018-06-05T10:34:07.074Z,23.53
2018-06-05T10:36:36.061Z,24.17
2018-06-05T10:39:07.270Z,22.13
2018-06-05T10:41:36.216Z,24.50
2018-06-05T10:44:05.173Z,23.17
2018-06-05T10:46:34.109Z,23.40
2018-06-05T10:49:02.845Z,24.23
2018-06-05T10:51:31.768Z,24.03
2018-06-05T10:54:00.745Z,25.30
2018-06-05T10:56:30.753Z,24.00
2018-06-05T10:58:59.732Z,23.67
2018-06-05T11:01:28.749Z,24.30
2018-06-05T11:03:58.744Z,23.07
2018-06-05T11:06:27.734Z,22.57
2018-06-05T11:08:56.659Z,23.63
2018-06-05T11:11:25.624Z,21.40
2018-06-05T11:13:54.542Z,22.10
2018-06-05T11:16:23.535Z,22.40
2018-06-05T11:18:52.780Z,23.20
2018-06-05T11:21:21.729Z,22.30
2018-06-05T11:23:50.504Z,22.23
2018-06-05T11:26:19.353Z,21.70
2018-06-05T11:28:48.369Z,21.70
2018-06-05T11:31:17.297Z,22.63
